Friedheim, Missouri
Current Conditions -  °F | °C
As of 10:53 AM on Friday 24 Oct 2014 (Local Time) from KCGI Reporting Station
Overcast Overcast  
Wind Chill: 59°   Ceiling: 1800
Heat Index: 59°   Visibility: 10mi
Dew Point: 50°   Wind: 5mph
Humidity: 72%   Direction: 250°WSW
Pressure: 30.14"   Gusts: NA
Location:  37.57°N, 89.82°W
Report Text: KCGI 241553Z 25004KT 10SM OVC018 15/10 A3014 RMK AO2 SLP205 T01500100
Loading
Personal Weather Stations






























Interactive Weather Map
Tropical Storm Tracking
New forecast layout! Learn more

10-Day Weather Forecast

Advertisements
Track Severe Weather on mobile